Harrison, MI

10:54 PM EST on December 28, 2014 (GMT -0500)
RAWS LEOTA MI US | Change Station
CLOSE
Current Station
Personal Weather Station
Location: Harrison, MI
Elevation: 1088 ft
Nearby Weather Stations

Elev 1088 ft 44.12 °N, 84.92 °W | Updated 42 minutes ago

Overcast
Overcast
25 °F
Feels Like 20 °F
N
4
Wind Variable Wind from NW
Gusts 11.0 mph

Today
High -- | Low -- °F
--% Chance of Precip.
Yesterday
High -- | Low -- °F
Precip. -- in
8:13 AM 5:08 PM
First Quarter, 54% visible
Pressure 30.20 in
Visibility 10.0 miles
Clouds Overcast 4000 ft
Windchill 20 °F
Dew Point 14 °F
Humidity 62%
Rainfall 0.00 in
Snow Depth Not available.
UV 0 out of 12
Pollen .10 out of 12
Air Quality Not available.
Flu Activity Not available.
METAR KHTL 290253Z AUTO 28008KT 10SM OVC040 M04/M10 A3015 RMK AO2 SLP226 T10441100 51014

More Conditions Fewer Conditions

Pressure 30.20 in
Visibility 10.0 miles
Clouds Overcast 4000 ft
Windchill 20 °F
Dew Point 14 °F
Humidity 62%
Rainfall 0.00 in
Snow Depth Not available.
UV 0 out of 12
Pollen .10 out of 12
Air Quality Not available.
Flu Activity Not available.
METAR KHTL 290253Z AUTO 28008KT 10SM OVC040 M04/M10 A3015 RMK AO2 SLP226 T10441100 51014

More Conditions Fewer Conditions

10-Day Weather Forecast

Almanac

Astronomy

Dec. 28, 2014 Rise Set
Actual Time
Civil Twilight
Nautical Twilight
Astronomical Twilight
Moon
Length of Visible Light
Length of Day
Tomorrow will be .
, % of the Moon is Illuminated

Today's Extremes

State Highs State Lows

Community

WunderPhotos

Upload Photos

1,781,520 photos uploaded!

WunderBlogs® & News

Nearby

Air Quality

  Air Quality AQ Index Pollutant
Not available.

Snow Depth

Station Depth Elevation

Earthquake Activity

City Distance Mag. Time & Date
Minimum magnitude displayed is 2.5.

Coastal Water Temperatures

Place Temperature

Nearby Weather Stations